createdAt,value
2023-04-08T00:00:16.125Z,500.00
2023-04-08T00:01:16.139Z,500.00
2023-04-08T00:02:16.224Z,500.00
2023-04-08T00:03:16.440Z,428.00
2023-04-08T00:04:16.330Z,400.00
2023-04-08T00:05:16.290Z,400.00
2023-04-08T00:06:16.344Z,400.00
2023-04-08T00:07:16.373Z,400.00
2023-04-08T00:08:16.431Z,403.00
2023-04-08T00:09:16.468Z,428.00
2023-04-08T00:10:16.526Z,458.00
2023-04-08T00:11:16.578Z,490.00
2023-04-08T00:12:16.683Z,501.00
2023-04-08T00:13:16.685Z,495.00
2023-04-08T00:14:16.726Z,500.00
2023-04-08T00:15:16.796Z,500.00
2023-04-08T00:16:16.866Z,500.00
2023-04-08T00:17:16.887Z,500.00
2023-04-08T00:18:16.943Z,503.00
2023-04-08T00:19:16.985Z,500.00
2023-04-08T00:20:17.049Z,502.00
2023-04-08T00:21:17.093Z,500.00
2023-04-08T00:22:17.160Z,502.00
2023-04-08T00:23:17.205Z,503.00
2023-04-08T00:24:17.272Z,505.00
2023-04-08T00:25:17.341Z,503.00
2023-04-08T00:26:17.368Z,508.00
2023-04-08T00:27:17.439Z,500.00
2023-04-08T00:28:17.530Z,501.00
2023-04-08T00:29:17.536Z,504.00
2023-04-08T00:30:17.603Z,502.00
2023-04-08T00:31:17.738Z,502.00
2023-04-08T00:32:17.746Z,502.00
2023-04-08T00:33:17.756Z,505.00
2023-04-08T00:34:17.813Z,502.00
2023-04-08T00:35:17.937Z,504.00
2023-04-08T00:36:17.924Z,507.00
2023-04-08T00:37:17.980Z,500.00
2023-04-08T00:38:18.036Z,505.00
2023-04-08T00:39:18.083Z,506.00
2023-04-08T00:40:18.141Z,506.00
2023-04-08T00:41:18.201Z,509.00
2023-04-08T00:42:18.257Z,502.00
2023-04-08T00:43:18.305Z,507.00
2023-04-08T00:44:18.385Z,505.00
2023-04-08T00:45:18.416Z,508.00
2023-04-08T00:46:18.525Z,503.00
2023-04-08T00:47:18.542Z,501.00
2023-04-08T00:48:18.612Z,505.00
2023-04-08T00:49:18.639Z,504.00
2023-04-08T00:50:18.696Z,508.00
2023-04-08T00:51:18.746Z,506.00
2023-04-08T00:52:18.797Z,504.00
2023-04-08T00:53:18.847Z,509.00
2023-04-08T00:54:18.896Z,504.00
2023-04-08T00:55:18.950Z,501.00
2023-04-08T00:56:18.998Z,506.00
2023-04-08T00:57:19.068Z,504.00
2023-04-08T00:58:19.117Z,503.00
2023-04-08T00:59:19.150Z,505.00
2023-04-08T01:00:19.251Z,509.00
2023-04-08T01:01:20.148Z,505.00
2023-04-08T01:02:19.462Z,503.00
2023-04-08T01:03:19.592Z,507.00
2023-04-08T01:04:19.548Z,517.00
2023-04-08T01:05:19.480Z,511.00
2023-04-08T01:06:19.532Z,502.00
2023-04-08T01:07:19.581Z,501.00
2023-04-08T01:08:19.641Z,504.00
2023-04-08T01:09:19.700Z,503.00
2023-04-08T01:10:19.745Z,504.00
2023-04-08T01:11:19.799Z,504.00
2023-04-08T01:12:19.859Z,501.00
2023-04-08T01:13:19.907Z,503.00
2023-04-08T01:14:19.956Z,505.00
2023-04-08T01:15:20.024Z,507.00
2023-04-08T01:16:20.162Z,507.00
2023-04-08T01:17:20.239Z,504.00
2023-04-08T01:18:20.179Z,502.00
2023-04-08T01:19:20.228Z,504.00
2023-04-08T01:20:20.302Z,505.00
2023-04-08T01:21:20.341Z,506.00
2023-04-08T01:22:20.403Z,506.00
2023-04-08T01:23:20.458Z,503.00
2023-04-08T01:24:20.503Z,508.00
2023-04-08T01:25:20.553Z,508.00
2023-04-08T01:26:20.602Z,505.00
2023-04-08T01:27:20.655Z,505.00
2023-04-08T01:28:20.710Z,511.00
2023-04-08T01:29:20.755Z,510.00
2023-04-08T01:30:20.832Z,510.00
2023-04-08T01:31:20.899Z,507.00
2023-04-08T01:32:21.015Z,509.00
2023-04-08T01:33:21.017Z,504.00
2023-04-08T01:34:21.027Z,505.00
2023-04-08T01:35:21.105Z,506.00
2023-04-08T01:36:21.131Z,505.00
2023-04-08T01:37:21.186Z,509.00
2023-04-08T01:38:21.236Z,507.00
2023-04-08T01:39:21.321Z,508.00
2023-04-08T01:40:21.346Z,508.00
2023-04-08T01:41:21.423Z,506.00
2023-04-08T01:42:21.462Z,505.00
2023-04-08T01:43:21.526Z,509.00
2023-04-08T01:44:21.578Z,505.00
2023-04-08T01:45:21.621Z,508.00
2023-04-08T01:46:21.728Z,504.00
2023-04-08T01:47:21.757Z,508.00
2023-04-08T01:48:21.806Z,503.00
2023-04-08T01:49:21.834Z,503.00
2023-04-08T01:50:21.883Z,507.00
2023-04-08T01:51:21.932Z,506.00
2023-04-08T01:52:22.026Z,501.00
2023-04-08T01:53:22.040Z,502.00
2023-04-08T01:54:22.090Z,505.00
2023-04-08T01:55:22.130Z,511.00
2023-04-08T01:56:22.182Z,504.00
2023-04-08T01:57:22.233Z,508.00
2023-04-08T01:58:23.033Z,506.00
2023-04-08T01:59:22.338Z,508.00
2023-04-08T02:00:22.444Z,508.00
2023-04-08T02:01:22.443Z,502.00
2023-04-08T02:02:22.620Z,503.00
2023-04-08T02:03:22.965Z,507.00
2023-04-08T02:04:22.741Z,506.00
2023-04-08T02:05:22.650Z,506.00
2023-04-08T02:06:22.702Z,508.00
2023-04-08T02:07:22.757Z,509.00
2023-04-08T02:08:22.806Z,500.00
2023-04-08T02:09:22.863Z,504.00
2023-04-08T02:10:22.921Z,508.00
2023-04-08T02:11:22.973Z,509.00
2023-04-08T02:12:23.026Z,507.00
2023-04-08T02:13:23.077Z,506.00
2023-04-08T02:14:23.145Z,508.00
2023-04-08T02:15:23.197Z,513.00
2023-04-08T02:16:23.384Z,509.00
2023-04-08T02:17:23.310Z,514.00
2023-04-08T02:18:23.370Z,510.00
2023-04-08T02:19:23.437Z,504.00
2023-04-08T02:20:23.513Z,508.00
2023-04-08T02:21:23.549Z,508.00
2023-04-08T02:22:23.602Z,509.00
2023-04-08T02:23:23.658Z,507.00
2023-04-08T02:24:23.720Z,508.00
2023-04-08T02:25:23.775Z,505.00
2023-04-08T02:26:23.832Z,513.00
2023-04-08T02:27:24.453Z,513.00
2023-04-08T02:28:23.949Z,509.00
2023-04-08T02:29:24.006Z,507.00
2023-04-08T02:30:24.057Z,505.00
2023-04-08T02:31:24.143Z,506.00
2023-04-08T02:32:24.185Z,508.00
2023-04-08T02:33:24.270Z,509.00
2023-04-08T02:34:24.296Z,511.00
2023-04-08T02:35:24.391Z,510.00
2023-04-08T02:36:24.442Z,507.00
2023-04-08T02:37:24.488Z,511.00
2023-04-08T02:38:24.550Z,513.00
2023-04-08T02:39:24.611Z,509.00
2023-04-08T02:40:24.663Z,506.00
2023-04-08T02:41:24.721Z,517.00
2023-04-08T02:42:24.781Z,506.00
2023-04-08T02:43:24.837Z,508.00
2023-04-08T02:44:24.905Z,506.00
2023-04-08T02:45:24.957Z,507.00
2023-04-08T02:46:25.011Z,515.00
2023-04-08T02:47:25.086Z,509.00
2023-04-08T02:48:25.127Z,505.00
2023-04-08T02:49:25.183Z,508.00
2023-04-08T02:50:25.233Z,507.00
2023-04-08T02:51:25.288Z,505.00
2023-04-08T02:52:25.377Z,504.00
2023-04-08T02:53:25.401Z,513.00
2023-04-08T02:54:25.460Z,505.00
2023-04-08T02:55:25.513Z,509.00
2023-04-08T02:56:25.572Z,513.00
2023-04-08T02:57:25.647Z,506.00
2023-04-08T02:58:25.686Z,508.00
2023-04-08T02:59:25.742Z,503.00
2023-04-08T03:00:25.805Z,505.00
2023-04-08T03:01:25.895Z,510.00
2023-04-08T03:02:25.993Z,507.00
2023-04-08T03:03:26.085Z,509.00
2023-04-08T03:04:26.028Z,501.00
2023-04-08T03:05:26.080Z,507.00
2023-04-08T03:06:26.141Z,510.00
2023-04-08T03:07:26.202Z,506.00
2023-04-08T03:08:26.269Z,507.00
2023-04-08T03:09:26.297Z,507.00
2023-04-08T03:10:26.355Z,506.00
2023-04-08T03:11:26.396Z,501.00
2023-04-08T03:12:26.449Z,507.00
2023-04-08T03:13:26.512Z,506.00
2023-04-08T03:14:26.564Z,506.00
2023-04-08T03:15:26.613Z,508.00
2023-04-08T03:16:26.679Z,507.00
2023-04-08T03:17:26.750Z,507.00
2023-04-08T03:18:26.775Z,509.00
2023-04-08T03:19:26.824Z,508.00
2023-04-08T03:20:26.879Z,508.00
2023-04-08T03:21:26.932Z,509.00
2023-04-08T03:22:26.990Z,512.00
2023-04-08T03:23:27.038Z,506.00
2023-04-08T03:24:27.126Z,508.00
2023-04-08T03:25:27.163Z,506.00
2023-04-08T03:26:27.244Z,508.00
2023-04-08T03:27:27.285Z,508.00
2023-04-08T03:28:27.333Z,507.00
2023-04-08T03:29:27.401Z,506.00
2023-04-08T03:30:27.454Z,505.00
2023-04-08T03:31:27.512Z,504.00
2023-04-08T03:32:27.587Z,506.00
2023-04-08T03:33:27.625Z,511.00
2023-04-08T03:34:27.680Z,510.00
2023-04-08T03:35:27.793Z,509.00
2023-04-08T03:36:27.791Z,508.00
2023-04-08T03:37:27.876Z,508.00
2023-04-08T03:38:27.915Z,508.00
2023-04-08T03:39:27.963Z,508.00
2023-04-08T03:40:28.051Z,510.00
2023-04-08T03:41:28.130Z,508.00
2023-04-08T03:42:28.137Z,504.00
2023-04-08T03:43:28.201Z,507.00
2023-04-08T03:44:28.257Z,510.00
2023-04-08T03:45:28.311Z,509.00
2023-04-08T03:46:28.420Z,507.00
2023-04-08T03:47:28.428Z,509.00
2023-04-08T03:48:28.491Z,508.00
2023-04-08T03:49:28.533Z,507.00
2023-04-08T03:50:28.601Z,503.00
2023-04-08T03:51:28.663Z,506.00
2023-04-08T03:52:28.716Z,511.00
2023-04-08T03:53:28.780Z,509.00
2023-04-08T03:54:28.839Z,511.00
2023-04-08T03:55:28.896Z,509.00
2023-04-08T03:56:28.974Z,510.00
2023-04-08T03:57:29.006Z,505.00
2023-04-08T03:58:29.067Z,508.00
2023-04-08T03:59:29.130Z,514.00
2023-04-08T04:00:29.206Z,509.00
2023-04-08T04:01:29.259Z,507.00
2023-04-08T04:02:29.508Z,506.00
2023-04-08T04:03:29.523Z,510.00
2023-04-08T04:04:30.419Z,509.00
2023-04-08T04:05:30.383Z,510.00
2023-04-08T04:06:29.534Z,510.00
2023-04-08T04:07:29.588Z,512.00
2023-04-08T04:08:29.658Z,510.00
2023-04-08T04:09:29.707Z,515.00
2023-04-08T04:10:29.761Z,503.00
2023-04-08T04:11:29.830Z,507.00
2023-04-08T04:12:29.907Z,513.00
2023-04-08T04:13:29.944Z,509.00
2023-04-08T04:14:29.996Z,507.00
2023-04-08T04:15:30.073Z,512.00
2023-04-08T04:16:32.735Z,508.00
2023-04-08T04:17:30.181Z,513.00
2023-04-08T04:18:30.165Z,512.00
2023-04-08T04:19:30.105Z,509.00
2023-04-08T04:20:30.109Z,513.00
2023-04-08T04:21:30.117Z,505.00
2023-04-08T04:22:30.132Z,509.00
2023-04-08T04:23:30.112Z,515.00
2023-04-08T04:24:30.114Z,508.00
2023-04-08T04:25:30.116Z,505.00
2023-04-08T04:26:30.128Z,512.00
2023-04-08T04:27:30.119Z,503.00
2023-04-08T04:28:30.146Z,509.00
2023-04-08T04:29:30.124Z,509.00
2023-04-08T04:30:30.134Z,507.00
2023-04-08T04:31:30.186Z,505.00
2023-04-08T04:32:30.154Z,510.00
2023-04-08T04:33:30.146Z,511.00
2023-04-08T04:34:30.147Z,508.00
2023-04-08T04:35:30.179Z,507.00
2023-04-08T04:36:30.152Z,506.00
2023-04-08T04:37:30.158Z,504.00
2023-04-08T04:38:30.166Z,511.00
2023-04-08T04:39:30.160Z,504.00
2023-04-08T04:40:30.163Z,503.00
2023-04-08T04:41:30.170Z,507.00
2023-04-08T04:42:30.168Z,503.00
2023-04-08T04:43:30.206Z,509.00
2023-04-08T04:44:30.288Z,509.00
2023-04-08T04:45:30.327Z,506.00
2023-04-08T04:46:30.420Z,508.00
2023-04-08T04:47:30.520Z,507.00
2023-04-08T04:48:30.496Z,506.00
2023-04-08T04:49:30.564Z,508.00
2023-04-08T04:50:30.622Z,509.00
2023-04-08T04:51:30.675Z,509.00
2023-04-08T04:52:30.749Z,506.00
2023-04-08T04:53:30.813Z,501.00
2023-04-08T04:54:30.848Z,506.00
2023-04-08T04:55:30.910Z,506.00
2023-04-08T04:56:30.972Z,506.00
2023-04-08T04:57:31.032Z,505.00
2023-04-08T04:58:31.084Z,505.00
2023-04-08T04:59:31.139Z,507.00
2023-04-08T05:00:31.226Z,503.00
2023-04-08T05:01:31.324Z,504.00
2023-04-08T05:02:31.571Z,503.00
2023-04-08T05:03:31.407Z,507.00
2023-04-08T05:04:31.637Z,512.00
2023-04-08T05:05:31.559Z,507.00
2023-04-08T05:06:31.593Z,510.00
2023-04-08T05:07:31.627Z,509.00
2023-04-08T05:08:31.677Z,506.00
2023-04-08T05:09:31.731Z,505.00
2023-04-08T05:10:31.817Z,508.00
2023-04-08T05:11:31.846Z,510.00
2023-04-08T05:12:31.904Z,513.00
2023-04-08T05:13:31.979Z,511.00
2023-04-08T05:14:32.023Z,510.00
2023-04-08T05:15:32.092Z,505.00
2023-04-08T05:16:32.238Z,508.00
2023-04-08T05:17:32.223Z,510.00
2023-04-08T05:18:32.277Z,510.00
2023-04-08T05:19:32.317Z,508.00
2023-04-08T05:20:32.382Z,510.00
2023-04-08T05:21:33.208Z,508.00
2023-04-08T05:22:32.494Z,508.00
2023-04-08T05:23:32.553Z,510.00
2023-04-08T05:24:32.616Z,510.00
2023-04-08T05:25:32.690Z,513.00
2023-04-08T05:26:32.733Z,512.00
2023-04-08T05:27:32.809Z,510.00
2023-04-08T05:28:32.848Z,508.00
2023-04-08T05:29:32.903Z,504.00
2023-04-08T05:30:32.988Z,508.00
2023-04-08T05:31:33.063Z,510.00
2023-04-08T05:32:33.182Z,511.00
2023-04-08T05:33:33.132Z,514.00
2023-04-08T05:34:33.202Z,512.00
2023-04-08T05:35:33.298Z,511.00
2023-04-08T05:36:33.309Z,510.00
2023-04-08T05:37:33.368Z,510.00
2023-04-08T05:38:33.435Z,507.00
2023-04-08T05:39:33.482Z,509.00
2023-04-08T05:40:33.545Z,513.00
2023-04-08T05:41:33.598Z,508.00
2023-04-08T05:42:33.658Z,512.00
2023-04-08T05:43:33.729Z,509.00
2023-04-08T05:44:33.765Z,508.00
2023-04-08T05:45:33.833Z,511.00
2023-04-08T05:46:33.927Z,504.00
2023-04-08T05:47:33.993Z,508.00
2023-04-08T05:48:34.035Z,508.00
2023-04-08T05:49:34.074Z,510.00
2023-04-08T05:50:34.123Z,508.00
2023-04-08T05:51:34.186Z,510.00
2023-04-08T05:52:34.241Z,510.00
2023-04-08T05:53:34.298Z,505.00
2023-04-08T05:54:34.343Z,507.00
2023-04-08T05:55:34.629Z,509.00
2023-04-08T05:56:34.448Z,513.00
2023-04-08T05:57:34.505Z,507.00
2023-04-08T05:58:34.564Z,506.00
2023-04-08T05:59:34.608Z,509.00
2023-04-08T06:00:34.673Z,512.00
2023-04-08T06:01:34.780Z,507.00
2023-04-08T06:02:34.866Z,507.00
2023-04-08T06:03:34.947Z,509.00
2023-04-08T06:04:34.974Z,508.00
2023-04-08T06:05:34.947Z,507.00
2023-04-08T06:06:34.992Z,517.00
2023-04-08T06:07:35.049Z,508.00
2023-04-08T06:08:35.094Z,516.00
2023-04-08T06:09:35.156Z,515.00
2023-04-08T06:10:35.212Z,514.00
2023-04-08T06:11:35.261Z,511.00
2023-04-08T06:12:35.364Z,511.00
2023-04-08T06:13:35.379Z,512.00
2023-04-08T06:14:35.438Z,509.00
2023-04-08T06:15:35.496Z,512.00
2023-04-08T06:16:35.584Z,509.00
2023-04-08T06:17:35.626Z,512.00
2023-04-08T06:18:35.664Z,512.00
2023-04-08T06:19:35.704Z,507.00
2023-04-08T06:20:35.813Z,514.00
2023-04-08T06:21:35.815Z,508.00
2023-04-08T06:22:35.869Z,508.00
2023-04-08T06:23:35.929Z,513.00
2023-04-08T06:24:35.992Z,507.00
2023-04-08T06:25:36.070Z,512.00
2023-04-08T06:26:36.125Z,511.00
2023-04-08T06:27:36.175Z,511.00
2023-04-08T06:28:36.297Z,508.00
2023-04-08T06:29:36.302Z,510.00
2023-04-08T06:30:36.597Z,512.00
2023-04-08T06:31:36.448Z,508.00
2023-04-08T06:32:36.496Z,505.00
2023-04-08T06:33:36.550Z,509.00
2023-04-08T06:34:36.601Z,508.00
2023-04-08T06:35:36.837Z,503.00
2023-04-08T06:36:36.730Z,503.00
2023-04-08T06:37:36.737Z,502.00
2023-04-08T06:38:36.802Z,505.00
2023-04-08T06:39:36.819Z,500.00
2023-04-08T06:40:36.854Z,501.00
2023-04-08T06:41:36.883Z,504.00
2023-04-08T06:42:36.913Z,500.00
2023-04-08T06:43:36.939Z,503.00
2023-04-08T06:44:36.950Z,503.00
2023-04-08T06:45:36.972Z,500.00
2023-04-08T06:46:36.944Z,500.00
2023-04-08T06:47:37.005Z,504.00
2023-04-08T06:48:37.008Z,500.00
2023-04-08T06:49:37.075Z,505.00
2023-04-08T06:50:37.115Z,510.00
2023-04-08T06:51:37.172Z,511.00
2023-04-08T06:52:37.234Z,504.00
2023-04-08T06:53:37.258Z,500.00
2023-04-08T06:54:37.280Z,504.00
2023-04-08T06:55:37.296Z,504.00
2023-04-08T06:56:37.436Z,517.00
2023-04-08T06:57:37.383Z,529.00
2023-04-08T06:58:37.435Z,539.00
2023-04-08T06:59:37.448Z,539.00
2023-04-08T07:00:37.476Z,532.00
2023-04-08T07:01:37.635Z,514.00
2023-04-08T07:02:37.781Z,513.00
2023-04-08T07:03:37.776Z,510.00
2023-04-08T07:04:37.637Z,509.00
2023-04-08T07:05:37.686Z,521.00
2023-04-08T07:06:37.729Z,530.00
2023-04-08T07:07:37.754Z,532.00
2023-04-08T07:08:37.784Z,534.00
2023-04-08T07:09:37.764Z,533.00
2023-04-08T07:10:37.757Z,533.00
2023-04-08T07:11:37.751Z,534.00
2023-04-08T07:12:37.785Z,534.00
2023-04-08T07:13:37.783Z,537.00
2023-04-08T07:14:37.800Z,536.00
2023-04-08T07:15:37.822Z,538.00
2023-04-08T07:16:37.924Z,539.00
2023-04-08T07:17:37.912Z,537.00
2023-04-08T07:18:37.884Z,540.00
2023-04-08T07:19:37.919Z,541.00
2023-04-08T07:20:37.951Z,540.00
2023-04-08T07:21:37.980Z,538.00
2023-04-08T07:22:37.996Z,534.00
2023-04-08T07:23:38.030Z,533.00
2023-04-08T07:24:38.090Z,537.00
2023-04-08T07:25:38.081Z,537.00
2023-04-08T07:26:38.086Z,528.00
2023-04-08T07:27:38.088Z,522.00
2023-04-08T07:28:38.093Z,521.00
2023-04-08T07:29:38.095Z,526.00
2023-04-08T07:30:38.133Z,525.00
2023-04-08T07:31:38.649Z,526.00
2023-04-08T07:32:38.226Z,528.00
2023-04-08T07:33:38.142Z,532.00
2023-04-08T07:34:38.160Z,535.00
2023-04-08T07:35:38.203Z,536.00
2023-04-08T07:36:38.200Z,530.00
2023-04-08T07:37:38.219Z,530.00
2023-04-08T07:38:38.250Z,530.00
2023-04-08T07:39:38.249Z,534.00
2023-04-08T07:40:38.301Z,532.00
2023-04-08T07:41:38.283Z,532.00
2023-04-08T07:42:40.274Z,533.00
2023-04-08T07:43:38.300Z,538.00
2023-04-08T07:44:38.303Z,538.00
2023-04-08T07:45:38.307Z,536.00
2023-04-08T07:46:38.387Z,532.00
2023-04-08T07:47:38.314Z,538.00
2023-04-08T07:48:38.302Z,534.00
2023-04-08T07:49:38.305Z,534.00
2023-04-08T07:51:08.157Z,536.00
2023-04-08T07:51:38.300Z,537.00
2023-04-08T07:52:38.310Z,538.00
2023-04-08T07:53:38.318Z,541.00
2023-04-08T07:54:38.297Z,542.00
2023-04-08T07:55:38.356Z,542.00
2023-04-08T07:56:38.321Z,541.00
2023-04-08T07:57:38.301Z,545.00
2023-04-08T07:58:38.304Z,545.00
2023-04-08T07:59:38.350Z,543.00
2023-04-08T08:00:38.320Z,542.00
2023-04-08T08:01:38.346Z,537.00
2023-04-08T08:02:38.458Z,542.00
2023-04-08T08:03:38.424Z,538.00
2023-04-08T08:04:38.521Z,543.00
2023-04-08T08:05:38.334Z,536.00
2023-04-08T08:06:38.337Z,530.00
2023-04-08T08:07:38.716Z,535.00
2023-04-08T08:08:38.353Z,533.00
2023-04-08T08:09:38.339Z,535.00
2023-04-08T08:10:38.338Z,535.00
2023-04-08T08:11:38.332Z,535.00
2023-04-08T08:12:38.360Z,536.00
2023-04-08T08:13:38.349Z,534.00
2023-04-08T08:14:38.327Z,535.00
2023-04-08T08:15:38.345Z,535.00
2023-04-08T08:16:38.335Z,530.00
2023-04-08T08:17:38.393Z,538.00
2023-04-08T08:18:38.906Z,536.00
2023-04-08T08:19:38.323Z,534.00
2023-04-08T08:20:38.328Z,532.00
2023-04-08T08:21:38.327Z,531.00
2023-04-08T08:22:46.956Z,534.00
2023-04-08T08:23:38.312Z,535.00
2023-04-08T08:24:38.310Z,536.00
2023-04-08T08:25:38.317Z,535.00
2023-04-08T08:26:38.318Z,538.00
2023-04-08T08:27:38.307Z,537.00
2023-04-08T08:28:38.365Z,539.00
2023-04-08T08:29:38.299Z,537.00
2023-04-08T08:30:38.296Z,540.00
2023-04-08T08:31:38.323Z,536.00
2023-04-08T08:32:38.294Z,537.00
2023-04-08T08:33:38.283Z,540.00
2023-04-08T08:34:38.286Z,537.00
2023-04-08T08:35:38.304Z,537.00
2023-04-08T08:36:38.289Z,537.00
2023-04-08T08:37:38.287Z,542.00
2023-04-08T08:38:38.288Z,535.00
2023-04-08T08:39:38.282Z,535.00
2023-04-08T08:40:38.273Z,534.00
2023-04-08T08:41:38.274Z,531.00
2023-04-08T08:42:38.280Z,536.00
2023-04-08T08:43:38.274Z,535.00
2023-04-08T08:44:38.419Z,531.00
2023-04-08T08:45:38.271Z,536.00
2023-04-08T08:46:38.308Z,534.00
2023-04-08T08:47:38.311Z,530.00
2023-04-08T08:48:38.261Z,534.00
2023-04-08T08:49:38.251Z,534.00
2023-04-08T08:50:38.257Z,532.00
2023-04-08T08:51:38.244Z,537.00
2023-04-08T08:52:38.245Z,532.00
2023-04-08T08:53:38.258Z,533.00
2023-04-08T08:54:38.251Z,534.00
2023-04-08T08:56:37.233Z,538.00
2023-04-08T08:57:38.236Z,538.00
2023-04-08T08:58:38.238Z,538.00
2023-04-08T08:59:38.227Z,540.00
2023-04-08T09:00:38.250Z,543.00
2023-04-08T09:01:38.580Z,535.00
2023-04-08T09:02:38.373Z,543.00
2023-04-08T09:03:38.443Z,539.00
2023-04-08T09:04:38.413Z,539.00
2023-04-08T09:05:38.333Z,538.00
2023-04-08T09:06:38.226Z,541.00
2023-04-08T09:07:38.231Z,539.00
2023-04-08T09:08:38.237Z,543.00
2023-04-08T09:09:38.240Z,537.00
2023-04-08T09:10:38.228Z,539.00
2023-04-08T09:11:38.245Z,543.00
2023-04-08T09:12:38.241Z,536.00
2023-04-08T09:13:38.242Z,544.00
2023-04-08T09:14:38.250Z,537.00
2023-04-08T09:15:38.248Z,541.00
2023-04-08T09:16:38.302Z,541.00
2023-04-08T09:17:38.319Z,537.00
2023-04-08T09:18:38.277Z,536.00
2023-04-08T09:19:38.957Z,535.00
2023-04-08T09:20:38.330Z,536.00
2023-04-08T09:21:38.329Z,543.00
2023-04-08T09:22:38.377Z,535.00
2023-04-08T09:23:38.431Z,543.00
2023-04-08T09:24:38.491Z,537.00
2023-04-08T09:25:38.536Z,537.00
2023-04-08T09:26:38.564Z,541.00
2023-04-08T09:27:38.600Z,539.00
2023-04-08T09:28:38.648Z,537.00
2023-04-08T09:29:40.056Z,536.00
2023-04-08T09:30:38.767Z,536.00
2023-04-08T09:31:38.822Z,538.00
2023-04-08T09:32:38.885Z,539.00
2023-04-08T09:33:38.886Z,539.00
2023-04-08T09:34:39.684Z,538.00
2023-04-08T09:35:39.030Z,534.00
2023-04-08T09:36:39.041Z,541.00
2023-04-08T09:37:39.056Z,542.00
2023-04-08T09:38:39.104Z,539.00
2023-04-08T09:39:39.158Z,543.00
2023-04-08T09:40:39.186Z,542.00
2023-04-08T09:41:39.238Z,546.00
2023-04-08T09:42:39.272Z,549.00
2023-04-08T09:43:39.308Z,547.00
2023-04-08T09:44:39.346Z,543.00
2023-04-08T09:45:39.417Z,550.00
2023-04-08T09:46:39.430Z,542.00
2023-04-08T09:47:39.525Z,546.00
2023-04-08T09:48:39.562Z,547.00
2023-04-08T09:49:39.596Z,551.00
2023-04-08T09:50:39.625Z,552.00
2023-04-08T09:51:39.677Z,553.00
2023-04-08T09:52:39.719Z,552.00
2023-04-08T09:53:39.766Z,553.00
2023-04-08T09:54:39.806Z,549.00
2023-04-08T09:55:39.849Z,550.00
2023-04-08T09:56:39.889Z,556.00
2023-04-08T09:57:39.932Z,553.00
2023-04-08T09:58:39.984Z,554.00
2023-04-08T09:59:40.031Z,552.00
2023-04-08T10:00:40.118Z,545.00
2023-04-08T10:01:40.254Z,553.00
2023-04-08T10:02:40.266Z,551.00
2023-04-08T10:03:40.388Z,557.00
2023-04-08T10:04:40.412Z,553.00
2023-04-08T10:05:40.290Z,550.00
2023-04-08T10:06:40.335Z,553.00
2023-04-08T10:07:40.377Z,551.00
2023-04-08T10:08:40.438Z,553.00
2023-04-08T10:09:40.462Z,552.00
2023-04-08T10:10:40.507Z,554.00
2023-04-08T10:11:40.556Z,551.00
2023-04-08T10:12:40.604Z,550.00
2023-04-08T10:13:40.653Z,552.00
2023-04-08T10:14:40.703Z,551.00
2023-04-08T10:15:40.765Z,548.00
2023-04-08T10:16:40.845Z,549.00
2023-04-08T10:17:40.893Z,551.00
2023-04-08T10:18:40.931Z,556.00
2023-04-08T10:19:40.952Z,553.00
2023-04-08T10:20:41.024Z,557.00
2023-04-08T10:21:41.051Z,555.00
2023-04-08T10:22:41.099Z,556.00
2023-04-08T10:23:41.152Z,559.00
2023-04-08T10:24:41.194Z,558.00
2023-04-08T10:25:41.247Z,563.00
2023-04-08T10:26:41.312Z,551.00
2023-04-08T10:27:41.338Z,553.00
2023-04-08T10:28:41.399Z,558.00
2023-04-08T10:29:41.448Z,552.00
2023-04-08T10:30:41.493Z,556.00
2023-04-08T10:31:41.587Z,554.00
2023-04-08T10:32:41.630Z,554.00
2023-04-08T10:33:41.652Z,559.00
2023-04-08T10:34:41.706Z,560.00
2023-04-08T10:35:41.778Z,560.00
2023-04-08T10:36:41.831Z,556.00
2023-04-08T10:37:41.841Z,560.00
2023-04-08T10:38:41.900Z,557.00
2023-04-08T10:39:41.956Z,556.00
2023-04-08T10:40:41.993Z,558.00
2023-04-08T10:41:42.049Z,555.00
2023-04-08T10:42:42.093Z,559.00
2023-04-08T10:43:42.169Z,556.00
2023-04-08T10:44:42.197Z,561.00
2023-04-08T10:45:42.288Z,561.00
2023-04-08T10:46:42.340Z,551.00
2023-04-08T10:47:42.419Z,559.00
2023-04-08T10:48:42.436Z,557.00
2023-04-08T10:49:42.469Z,558.00
2023-04-08T10:50:42.535Z,554.00
2023-04-08T10:51:42.582Z,559.00
2023-04-08T10:52:42.652Z,556.00
2023-04-08T10:53:42.685Z,551.00
2023-04-08T10:54:42.741Z,559.00
2023-04-08T10:55:42.799Z,557.00
2023-04-08T10:56:42.868Z,553.00
2023-04-08T10:57:42.911Z,558.00
2023-04-08T10:58:42.968Z,556.00
2023-04-08T10:59:43.022Z,549.00
2023-04-08T11:00:43.092Z,554.00
2023-04-08T11:01:43.247Z,550.00
2023-04-08T11:02:43.290Z,546.00
2023-04-08T11:03:43.365Z,553.00
2023-04-08T11:04:43.372Z,552.00
2023-04-08T11:05:43.320Z,550.00
2023-04-08T11:06:43.367Z,551.00
2023-04-08T11:07:43.413Z,549.00
2023-04-08T11:08:43.500Z,546.00
2023-04-08T11:09:43.512Z,553.00
2023-04-08T11:10:43.559Z,551.00
2023-04-08T11:11:43.608Z,550.00
2023-04-08T11:12:43.656Z,546.00
2023-04-08T11:13:48.756Z,550.00
2023-04-08T11:14:43.711Z,551.00
2023-04-08T11:15:43.742Z,553.00
2023-04-08T11:16:43.696Z,553.00
2023-04-08T11:17:43.746Z,551.00
2023-04-08T11:18:43.707Z,559.00
2023-04-08T11:19:43.705Z,555.00
2023-04-08T11:20:43.704Z,554.00
2023-04-08T11:21:43.704Z,555.00
2023-04-08T11:22:43.705Z,557.00
2023-04-08T11:23:43.707Z,551.00
2023-04-08T11:24:43.742Z,552.00
2023-04-08T11:25:43.725Z,556.00
2023-04-08T11:26:43.718Z,553.00
2023-04-08T11:27:43.729Z,555.00
2023-04-08T11:28:43.728Z,556.00
2023-04-08T11:29:43.727Z,551.00
2023-04-08T11:30:43.763Z,550.00
2023-04-08T11:31:43.954Z,555.00
2023-04-08T11:32:43.768Z,550.00
2023-04-08T11:33:43.730Z,553.00
2023-04-08T11:34:43.736Z,552.00
2023-04-08T11:35:43.771Z,553.00
2023-04-08T11:36:43.772Z,552.00
2023-04-08T11:37:43.742Z,553.00
2023-04-08T11:38:43.747Z,552.00
2023-04-08T11:39:43.748Z,556.00
2023-04-08T11:40:43.767Z,548.00
2023-04-08T11:41:43.744Z,551.00
2023-04-08T11:42:45.418Z,545.00
2023-04-08T11:43:43.737Z,564.00
2023-04-08T11:44:43.742Z,552.00
2023-04-08T11:45:43.741Z,551.00
2023-04-08T11:46:43.830Z,551.00
2023-04-08T11:47:43.809Z,549.00
2023-04-08T11:48:43.734Z,552.00
2023-04-08T11:49:43.730Z,555.00
2023-04-08T11:50:43.738Z,553.00
2023-04-08T11:51:43.727Z,552.00
2023-04-08T11:52:43.722Z,553.00
2023-04-08T11:53:43.726Z,549.00
2023-04-08T11:54:43.750Z,555.00
2023-04-08T11:55:43.724Z,553.00
2023-04-08T11:56:43.747Z,548.00
2023-04-08T11:57:43.720Z,554.00
2023-04-08T11:58:43.727Z,548.00
2023-04-08T11:59:43.720Z,553.00
2023-04-08T12:00:43.910Z,554.00
2023-04-08T12:01:43.799Z,550.00
2023-04-08T12:02:43.771Z,552.00
2023-04-08T12:03:43.820Z,552.00
2023-04-08T12:04:43.705Z,555.00
2023-04-08T12:05:43.703Z,555.00
2023-04-08T12:06:43.726Z,553.00
2023-04-08T12:07:43.700Z,550.00
2023-04-08T12:08:43.693Z,553.00
2023-04-08T12:09:43.689Z,553.00
2023-04-08T12:10:43.691Z,551.00
2023-04-08T12:11:43.703Z,551.00
2023-04-08T12:12:43.762Z,554.00
2023-04-08T12:13:43.703Z,555.00
2023-04-08T12:14:43.729Z,552.00
2023-04-08T12:15:43.806Z,550.00
2023-04-08T12:16:43.859Z,558.00
2023-04-08T12:17:43.931Z,555.00
2023-04-08T12:18:43.953Z,550.00
2023-04-08T12:19:43.985Z,550.00
2023-04-08T12:20:44.057Z,546.00
2023-04-08T12:21:44.923Z,558.00
2023-04-08T12:22:44.159Z,549.00
2023-04-08T12:23:44.189Z,548.00
2023-04-08T12:24:44.227Z,554.00
2023-04-08T12:25:44.272Z,551.00
2023-04-08T12:26:44.330Z,551.00
2023-04-08T12:27:44.381Z,555.00
2023-04-08T12:28:44.448Z,545.00
2023-04-08T12:29:44.466Z,549.00